Time;durP1;ratioP1;P1;durP2;ratioP2;P2;SDS_P1;SDS_P2;PMS_P1;PMS_P2;Temp;Humidity;BMP_temperature;BMP_pressure;BME280_temperature;BME280_humidity;BME280_pressure;Samples;Min_cycle;Max_cycle;Signal;HPM_P1;HPM_P2
2022/05/25 00:01:34;;;;;;;3.28;1.00;;;14.50;99.90;;;;;;5019958;28;20045;-75
2022/05/25 00:04:01;;;;;;;2.85;1.15;;;13.80;99.90;;;;;;5036539;28;20381;-76
2022/05/25 00:06:28;;;;;;;2.03;1.30;;;13.70;99.90;;;;;;5040832;28;20507;-75
2022/05/25 00:08:55;;;;;;;4.80;1.30;;;14.10;99.90;;;;;;5001678;28;20081;-76
2022/05/25 00:11:21;;;;;;;2.65;1.20;;;13.70;99.90;;;;;;5015036;28;20210;-76
2022/05/25 00:13:49;;;;;;;5.45;2.10;;;14.00;99.90;;;;;;5034683;28;20033;-75
2022/05/25 00:16:15;;;;;;;5.63;2.03;;;14.40;99.90;;;;;;5035484;28;20049;-76
2022/05/25 00:19:59;;;;;;;4.50;1.98;;;14.00;99.90;;;;;;5055425;28;20807;-76
2022/05/25 00:21:30;;;;;;;6.38;3.17;;;14.30;99.90;;;;;;5027917;28;20076;-76
2022/05/25 00:23:57;;;;;;;5.50;3.40;;;14.30;99.90;;;;;;5011606;28;20091;-75
2022/05/25 00:26:23;;;;;;;9.70;4.20;;;14.00;99.90;;;;;;5038956;28;20041;-75
2022/05/25 00:28:49;;;;;;;5.18;3.35;;;14.40;99.90;;;;;;5043436;28;20045;-74
2022/05/25 00:31:16;;;;;;;5.53;3.47;;;14.30;99.90;;;;;;5035495;28;20067;-75
2022/05/25 00:33:42;;;;;;;4.95;3.58;;;14.30;99.90;;;;;;5028770;28;20044;-76
2022/05/25 00:36:09;;;;;;;6.43;3.28;;;14.10;99.90;;;;;;5041941;28;20057;-76
2022/05/25 00:38:36;;;;;;;7.18;3.63;;;14.40;99.90;;;;;;5040302;28;20111;-75
2022/05/25 00:41:03;;;;;;;4.50;2.92;;;14.60;99.90;;;;;;5026663;28;20037;-77
2022/05/25 00:43:29;;;;;;;6.72;3.10;;;14.40;99.90;;;;;;5012005;28;20101;-77
2022/05/25 00:46:08;;;;;;;3.00;2.30;;;14.70;99.90;;;;;;5059056;28;20799;-76
2022/05/25 00:48:37;;;;;;;2.80;1.70;;;14.50;99.90;;;;;;5034953;28;20563;-76
2022/05/25 00:51:13;;;;;;;5.05;1.95;;;14.10;99.90;;;;;;5040096;28;20037;-76
2022/05/25 00:53:51;;;;;;;3.00;1.90;;;14.30;99.90;;;;;;5027259;28;20447;-76
2022/05/25 00:56:22;;;;;;;5.70;1.50;;;13.90;99.90;;;;;;5026483;28;20053;-76
2022/05/25 00:59:07;;;;;;;3.40;1.42;;;13.90;99.90;;;;;;5025819;28;20072;-76
2022/05/25 01:01:32;;;;;;;3.63;1.20;;;14.00;99.90;;;;;;5020509;28;20038;-75
2022/05/25 01:03:58;;;;;;;5.00;1.27;;;13.80;99.90;;;;;;5024353;28;20484;-77
2022/05/25 01:06:42;;;;;;;2.60;1.30;;;14.00;99.90;;;;;;5029796;28;20037;-77
2022/05/25 01:09:42;;;;;;;1.88;1.10;;;14.00;99.90;;;;;;5009045;28;20388;-76
2022/05/25 01:12:29;;;;;;;2.75;1.20;;;14.00;99.90;;;;;;5027131;28;20037;-77
2022/05/25 01:15:09;;;;;;;3.50;1.10;;;13.90;99.90;;;;;;5041303;28;20041;-76
2022/05/25 01:18:10;;;;;;;2.88;1.17;;;13.60;99.90;;;;;;5024058;28;20041;-76
2022/05/25 01:20:52;;;;;;;4.95;1.15;;;13.70;99.90;;;;;;5042076;28;20042;-75
2022/05/25 01:23:51;;;;;;;1.80;0.90;;;13.50;99.90;;;;;;5025415;28;20083;-75
2022/05/25 01:26:57;;;;;;;1.23;0.60;;;13.60;99.90;;;;;;5023082;28;20552;-75
2022/05/25 01:29:55;;;;;;;2.13;0.93;;;13.40;99.90;;;;;;5037218;28;20038;-76
2022/05/25 01:32:47;;;;;;;3.78;1.02;;;13.40;99.90;;;;;;5034454;28;20481;-75
2022/05/25 01:35:32;;;;;;;3.53;0.70;;;13.60;99.90;;;;;;5025395;28;20045;-75
2022/05/25 01:38:11;;;;;;;1.25;0.70;;;13.40;99.90;;;;;;5022020;28;20066;-76
2022/05/25 01:40:54;;;;;;;1.27;0.70;;;13.40;99.90;;;;;;5016241;28;20505;-75
2022/05/25 01:43:27;;;;;;;2.70;0.70;;;13.40;99.90;;;;;;5025471;28;20080;-75
2022/05/25 01:45:56;;;;;;;;;;;13.50;99.90;;;;;;5025280;28;20034;-76
2022/05/25 01:48:24;;;;;;;1.17;0.70;;;13.40;99.90;;;;;;5005836;28;20016;-75
2022/05/25 01:51:02;;;;;;;1.73;0.90;;;13.40;99.90;;;;;;5038350;28;20041;-75
2022/05/25 01:53:36;;;;;;;1.20;0.75;;;13.30;99.90;;;;;;5018755;28;20037;-75
2022/05/25 01:56:06;;;;;;;1.15;0.50;;;13.60;99.90;;;;;;5022433;28;20497;-75
2022/05/25 01:58:36;;;;;;;1.70;0.80;;;13.50;99.90;;;;;;5023200;28;20534;-75
2022/05/25 02:01:06;;;;;;;1.92;0.80;;;13.30;99.90;;;;;;5023551;28;20116;-75
2022/05/25 02:06:37;;;;;;;3.33;0.88;;;13.30;99.90;;;;;;5027825;28;20072;-76
2022/05/25 02:09:13;;;;;;;1.95;0.70;;;13.60;99.90;;;;;;5023249;28;20049;-75
2022/05/25 02:11:46;;;;;;;2.70;0.70;;;13.50;99.90;;;;;;5037407;28;20050;-76
2022/05/25 02:14:14;;;;;;;1.27;0.70;;;13.80;99.90;;;;;;5027075;28;20124;-74
2022/05/25 02:16:59;;;;;;;1.58;0.80;;;13.60;99.90;;;;;;5039080;28;20052;-76
2022/05/25 02:19:41;;;;;;;1.73;0.90;;;13.80;99.90;;;;;;5035518;28;20110;-75
2022/05/25 02:22:26;;;;;;;2.10;0.90;;;13.80;99.90;;;;;;5003730;28;20194;-75
2022/05/25 02:25:01;;;;;;;2.47;0.73;;;14.00;99.90;;;;;;5039754;28;20049;-75
2022/05/25 02:27:35;;;;;;;2.13;0.98;;;13.90;99.90;;;;;;5019098;28;20092;-74
2022/05/25 02:30:08;;;;;;;2.60;1.00;;;14.10;99.90;;;;;;5058330;28;20037;-75
2022/05/25 02:32:56;;;;;;;1.77;0.88;;;13.90;99.90;;;;;;5024521;28;20030;-75
2022/05/25 02:35:24;;;;;;;1.20;0.77;;;13.90;99.90;;;;;;5017845;28;20273;-75
2022/05/25 02:37:53;;;;;;;2.05;0.80;;;13.70;99.90;;;;;;5037170;28;20041;-75
2022/05/25 02:40:19;;;;;;;1.67;0.88;;;13.70;99.90;;;;;;5055720;28;20095;-74
2022/05/25 02:42:46;;;;;;;4.30;1.10;;;13.70;99.90;;;;;;5023279;28;20042;-75
2022/05/25 02:45:13;;;;;;;2.08;1.00;;;14.10;99.90;;;;;;5021104;28;20044;-74
2022/05/25 02:47:39;;;;;;;4.32;0.90;;;13.80;99.90;;;;;;5025999;28;20497;-75
2022/05/25 02:50:07;;;;;;;2.88;0.90;;;13.70;99.90;;;;;;5033441;28;20043;-75
2022/05/25 02:52:33;;;;;;;2.15;0.65;;;13.90;99.90;;;;;;5023219;28;20042;-75
2022/05/25 02:54:59;;;;;;;3.33;1.00;;;13.70;99.90;;;;;;5025042;28;20037;-75
2022/05/25 02:57:25;;;;;;;1.67;0.77;;;13.80;99.90;;;;;;5019434;28;20052;-74
2022/05/25 02:59:50;;;;;;;2.03;0.80;;;13.60;99.90;;;;;;5020554;28;20041;-76
2022/05/25 03:02:18;;;;;;;3.47;1.00;;;13.70;99.90;;;;;;5038503;28;20250;-75
2022/05/25 03:04:44;;;;;;;1.73;0.88;;;13.60;99.90;;;;;;5020099;28;20107;-74
2022/05/25 03:07:10;;;;;;;0.93;0.70;;;13.70;99.90;;;;;;5018386;28;20037;-76
2022/05/25 03:09:37;;;;;;;2.03;1.00;;;13.80;99.90;;;;;;5052563;28;20140;-74
2022/05/25 03:12:05;;;;;;;2.10;0.73;;;13.80;99.90;;;;;;5023570;28;20040;-75
2022/05/25 03:14:31;;;;;;;1.92;0.93;;;13.80;99.90;;;;;;5018232;28;20061;-75
2022/05/25 03:17:02;;;;;;;2.80;1.08;;;13.50;99.90;;;;;;5020447;28;20085;-73
2022/05/25 03:19:27;;;;;;;4.43;1.08;;;13.50;99.90;;;;;;5035627;28;20041;-74
2022/05/25 03:21:53;;;;;;;2.88;1.08;;;13.50;99.90;;;;;;5011796;28;20041;-74
2022/05/25 03:24:19;;;;;;;3.10;0.90;;;13.50;99.90;;;;;;5015804;28;20084;-74
2022/05/25 03:26:45;;;;;;;3.28;1.10;;;13.70;99.90;;;;;;5020023;28;20053;-74
2022/05/25 03:29:13;;;;;;;2.38;1.38;;;13.50;99.90;;;;;;5033890;28;20481;-74
2022/05/25 03:31:38;;;;;;;2.90;1.35;;;13.70;99.90;;;;;;5009215;28;20041;-73
2022/05/25 03:34:05;;;;;;;2.92;1.40;;;13.60;99.90;;;;;;5019980;28;20394;-74
2022/05/25 03:36:31;;;;;;;3.03;1.33;;;13.60;99.90;;;;;;5037299;28;20553;-74
2022/05/25 03:38:57;;;;;;;3.28;2.00;;;13.50;99.90;;;;;;5025233;28;20128;-74
2022/05/25 03:41:23;;;;;;;4.13;1.70;;;13.50;99.90;;;;;;5033980;28;20033;-74
2022/05/25 03:43:50;;;;;;;2.13;1.55;;;13.40;99.90;;;;;;5021572;28;20054;-75
2022/05/25 03:46:16;;;;;;;3.83;2.17;;;13.70;99.90;;;;;;5032011;28;20048;-74
2022/05/25 03:48:42;;;;;;;2.67;1.48;;;13.40;99.90;;;;;;5040115;28;20049;-74
2022/05/25 03:51:08;;;;;;;2.83;1.27;;;13.60;99.90;;;;;;5024871;28;20041;-75
2022/05/25 03:53:34;;;;;;;2.92;1.20;;;13.30;99.90;;;;;;5021970;28;20045;-75
2022/05/25 03:56:00;;;;;;;3.20;1.40;;;13.50;99.90;;;;;;5012766;28;20618;-74
2022/05/25 03:58:26;;;;;;;2.03;1.52;;;13.50;99.90;;;;;;5042609;28;20089;-76
2022/05/25 04:00:52;;;;;;;3.33;1.50;;;13.60;99.90;;;;;;5032529;28;20076;-76
2022/05/25 04:03:18;;;;;;;2.35;1.70;;;13.30;99.90;;;;;;5039442;28;20175;-74
2022/05/25 04:05:45;;;;;;;3.10;1.88;;;13.50;99.90;;;;;;5013465;28;20042;-76
2022/05/25 04:08:12;;;;;;;2.80;1.85;;;14.00;99.90;;;;;;5022943;28;20196;-76
2022/05/25 04:10:38;;;;;;;2.70;1.88;;;13.40;99.90;;;;;;5061083;28;20191;-75
2022/05/25 04:13:04;;;;;;;2.17;1.45;;;14.80;99.90;;;;;;5022500;28;20030;-75
2022/05/25 04:15:33;;;;;;;2.50;1.50;;;13.50;99.90;;;;;;5007968;28;20034;-76
2022/05/25 04:18:01;;;;;;;1.75;1.08;;;14.10;99.90;;;;;;5009413;28;20048;-75
2022/05/25 04:20:29;;;;;;;2.13;1.30;;;13.10;99.90;;;;;;5024077;28;20033;-74
2022/05/25 04:22:57;;;;;;;1.92;1.20;;;15.00;99.90;;;;;;5029305;28;20046;-74
2022/05/25 04:25:24;;;;;;;3.53;1.10;;;15.00;99.90;;;;;;5038417;28;20037;-75
2022/05/25 04:27:53;;;;;;;2.67;0.82;;;14.70;99.90;;;;;;5025097;28;20478;-75
2022/05/25 04:30:26;;;;;;;2.42;0.93;;;14.30;99.90;;;;;;5046764;28;20034;-75
2022/05/25 04:32:53;;;;;;;1.27;1.00;;;14.50;99.90;;;;;;5035101;28;20037;-74
2022/05/25 04:35:20;;;;;;;2.38;0.80;;;15.00;99.90;;;;;;5024712;28;20096;-74
2022/05/25 04:37:49;;;;;;;2.30;0.88;;;13.20;99.90;;;;;;5018649;28;20137;-74
2022/05/25 04:40:27;;;;;;;2.70;0.93;;;14.90;99.90;;;;;;5025206;28;20080;-74
2022/05/25 04:42:54;;;;;;;0.90;0.70;;;14.30;99.90;;;;;;5039894;28;20065;-75
2022/05/25 04:45:21;;;;;;;2.00;0.73;;;12.90;99.90;;;;;;5037197;28;20041;-74
2022/05/25 04:47:47;;;;;;;0.98;0.60;;;14.50;99.90;;;;;;5038731;28;20056;-75
2022/05/25 04:50:16;;;;;;;0.70;0.60;;;14.00;99.90;;;;;;5037332;28;20049;-76
2022/05/25 04:52:42;;;;;;;0.85;0.65;;;13.70;99.90;;;;;;5024648;28;20057;-74
2022/05/25 04:57:19;;;;;;;1.25;0.57;;;13.30;99.90;;;;;;5023820;28;20111;-75
2022/05/25 04:57:56;;;;;;;1.35;0.80;;;13.00;99.90;;;;;;5024425;28;20053;-75
2022/05/25 05:00:21;;;;;;;1.42;0.70;;;14.00;99.90;;;;;;5035600;28;20034;-76
2022/05/25 05:02:47;;;;;;;1.95;1.02;;;13.00;99.90;;;;;;5041314;28;20056;-76
2022/05/25 05:05:15;;;;;;;1.60;0.90;;;13.90;99.90;;;;;;5022287;28;20099;-75
2022/05/25 05:07:41;;;;;;;2.50;0.80;;;13.30;99.90;;;;;;5039142;28;20041;-75
2022/05/25 05:10:08;;;;;;;1.67;1.13;;;14.00;99.90;;;;;;5038856;28;20070;-76
2022/05/25 05:12:34;;;;;;;5.50;1.50;;;14.00;99.90;;;;;;5027916;28;20116;-75
2022/05/25 05:15:00;;;;;;;2.55;1.70;;;13.70;99.90;;;;;;5024741;28;20072;-76
2022/05/25 05:17:26;;;;;;;3.03;1.55;;;13.30;99.90;;;;;;5027351;28;20036;-76
2022/05/25 05:19:52;;;;;;;2.35;1.35;;;13.90;99.90;;;;;;5039959;28;20033;-76
2022/05/25 05:22:18;;;;;;;2.17;1.05;;;13.90;99.90;;;;;;5021505;28;20417;-76
2022/05/25 05:24:44;;;;;;;1.67;1.10;;;13.40;99.90;;;;;;5057574;28;20398;-76
2022/05/25 05:27:11;;;;;;;2.70;1.10;;;13.80;99.90;;;;;;5023673;28;20119;-76
2022/05/25 05:29:37;;;;;;;2.88;1.20;;;13.30;99.90;;;;;;5020043;28;20042;-76
2022/05/25 05:32:04;;;;;;;4.60;1.50;;;13.50;99.90;;;;;;5023145;28;20728;-77
2022/05/25 05:34:29;;;;;;;1.73;0.80;;;13.70;99.90;;;;;;5045990;28;20033;-76
2022/05/25 05:37:23;;;;;;;2.47;1.30;;;13.70;99.90;;;;;;5038918;28;20099;-75
2022/05/25 05:39:54;;;;;;;3.95;1.92;;;13.70;99.90;;;;;;5023751;28;20042;-76
2022/05/25 05:42:22;;;;;;;2.58;1.42;;;13.40;99.90;;;;;;5009985;28;20054;-76
2022/05/25 05:44:58;;;;;;;3.15;1.10;;;13.70;99.90;;;;;;5024040;28;20125;-75
2022/05/25 05:47:42;;;;;;;3.17;0.93;;;13.60;99.90;;;;;;5040521;28;20056;-75
2022/05/25 05:50:10;;;;;;;1.98;1.20;;;13.50;99.90;;;;;;5020276;28;20041;-77
2022/05/25 05:52:36;;;;;;;3.10;1.17;;;13.70;99.90;;;;;;5027354;28;20500;-76
2022/05/25 05:55:04;;;;;;;2.13;0.90;;;13.80;99.90;;;;;;5040555;28;20036;-76
2022/05/25 05:57:33;;;;;;;2.45;0.70;;;13.50;99.90;;;;;;5035788;28;20128;-77
2022/05/25 06:00:00;;;;;;;2.80;0.80;;;13.50;99.90;;;;;;5024738;28;20064;-75
2022/05/25 06:02:26;;;;;;;0.75;0.70;;;13.50;99.90;;;;;;5022024;28;20096;-75
2022/05/25 06:04:53;;;;;;;1.65;0.80;;;13.70;99.90;;;;;;5023728;28;20033;-76
2022/05/25 06:07:19;;;;;;;1.83;0.65;;;13.90;99.90;;;;;;5028278;28;20026;-75
2022/05/25 06:09:45;;;;;;;2.28;0.85;;;13.70;99.90;;;;;;5037903;28;20065;-76
2022/05/25 06:12:14;;;;;;;2.10;0.85;;;14.00;99.90;;;;;;5039426;28;20596;-76
2022/05/25 06:14:41;;;;;;;0.98;0.60;;;13.90;99.90;;;;;;5057450;28;20038;-76
2022/05/25 06:19:53;;;;;;;1.50;0.80;;;13.80;99.90;;;;;;5021699;28;20068;-76
2022/05/25 06:22:19;;;;;;;2.42;0.50;;;14.00;99.90;;;;;;5037549;28;20037;-76
2022/05/25 06:24:53;;;;;;;1.38;0.65;;;14.00;99.90;;;;;;5024833;28;20037;-74
2022/05/25 06:27:21;;;;;;;3.50;0.80;;;14.10;99.90;;;;;;5026141;28;20389;-74
2022/05/25 06:29:48;;;;;;;1.38;0.73;;;14.30;99.90;;;;;;5020478;28;20049;-76
2022/05/25 06:32:27;;;;;;;1.90;0.80;;;14.30;99.90;;;;;;5025389;28;20099;-75
2022/05/25 06:34:54;;;;;;;2.05;0.95;;;14.30;99.90;;;;;;5021630;28;20037;-76
2022/05/25 06:37:23;;;;;;;2.83;0.90;;;14.50;99.90;;;;;;5032720;28;20503;-75
2022/05/25 06:39:50;;;;;;;3.88;0.88;;;14.70;99.90;;;;;;5029959;28;20046;-75
2022/05/25 06:42:17;;;;;;;2.08;0.80;;;14.80;99.90;;;;;;5030690;28;20064;-75
2022/05/25 06:44:44;;;;;;;1.90;0.60;;;14.80;99.90;;;;;;5025079;28;20044;-75
2022/05/25 06:47:16;;;;;;;0.80;0.70;;;14.90;99.90;;;;;;5036425;28;20389;-76
2022/05/25 06:49:43;;;;;;;1.58;0.57;;;15.10;99.90;;;;;;5037701;28;20516;-76
2022/05/25 06:52:10;;;;;;;3.10;0.80;;;15.20;99.90;;;;;;5026485;28;20049;-76
2022/05/25 06:54:36;;;;;;;1.10;0.70;;;15.30;99.90;;;;;;5023492;28;20543;-75
2022/05/25 06:57:02;;;;;;;2.08;0.80;;;15.40;99.90;;;;;;5026446;28;20038;-75
2022/05/25 06:59:28;;;;;;;2.83;0.80;;;15.50;99.90;;;;;;5038624;28;20373;-76
2022/05/25 07:01:55;;;;;;;1.20;0.70;;;15.60;99.90;;;;;;5020563;28;20045;-76
2022/05/25 07:04:22;;;;;;;2.60;0.80;;;15.70;99.90;;;;;;5033091;28;20080;-77
2022/05/25 07:06:48;;;;;;;3.50;0.80;;;15.80;99.90;;;;;;5023112;28;20124;-75
2022/05/25 07:09:14;;;;;;;1.45;0.80;;;15.90;99.90;;;;;;5017019;28;20046;-77
2022/05/25 07:11:42;;;;;;;1.50;0.70;;;16.00;99.90;;;;;;5019234;28;20148;-76
2022/05/25 07:14:10;;;;;;;4.15;0.90;;;16.10;99.90;;;;;;5020981;28;20042;-75
2022/05/25 07:16:36;;;;;;;2.28;0.80;;;16.30;99.90;;;;;;5020630;28;20089;-76
2022/05/25 07:19:03;;;;;;;1.13;0.80;;;16.40;99.90;;;;;;5017609;28;20575;-74
2022/05/25 07:21:31;;;;;;;1.58;0.70;;;16.50;99.90;;;;;;5038112;28;20132;-75
2022/05/25 07:23:59;;;;;;;3.33;0.98;;;16.60;99.90;;;;;;5039523;28;20382;-76
2022/05/25 07:26:27;;;;;;;2.92;0.90;;;16.70;99.90;;;;;;5017416;28;20519;-75
2022/05/25 07:28:54;;;;;;;4.47;0.85;;;16.70;99.90;;;;;;5024121;28;20048;-76
2022/05/25 07:31:27;;;;;;;1.10;0.65;;;16.70;99.90;;;;;;5019332;28;20435;-75
2022/05/25 07:34:32;;;;;;;0.98;0.47;;;16.70;99.90;;;;;;5021954;28;20124;-76
2022/05/25 07:37:02;;;;;;;1.92;0.77;;;16.60;99.90;;;;;;5049120;28;20143;-76
2022/05/25 07:39:36;;;;;;;2.08;1.05;;;16.70;99.90;;;;;;5051089;28;20033;-74
2022/05/25 07:42:04;;;;;;;9.07;5.80;;;16.50;99.90;;;;;;5052019;28;20033;-75
2022/05/25 07:44:36;;;;;;;5.70;0.93;;;16.50;99.90;;;;;;5052356;28;20040;-74
2022/05/25 07:47:03;;;;;;;3.28;0.70;;;16.60;99.90;;;;;;5020840;28;20026;-76
2022/05/25 07:49:29;;;;;;;2.08;0.80;;;16.70;99.90;;;;;;5023405;28;20531;-74
2022/05/25 07:51:56;;;;;;;1.35;0.60;;;16.70;99.90;;;;;;5020822;28;20061;-74
2022/05/25 07:54:23;;;;;;;4.70;0.70;;;16.60;99.90;;;;;;5018042;28;20053;-75
2022/05/25 07:56:49;;;;;;;0.85;0.60;;;16.40;99.90;;;;;;5024526;28;20564;-75
2022/05/25 07:59:16;;;;;;;1.88;0.57;;;16.50;99.90;;;;;;5021525;28;20033;-75
2022/05/25 08:07:26;;;;;;;2.60;0.65;;;16.70;99.90;;;;;;4998957;28;20092;-74
2022/05/25 08:09:55;;;;;;;4.07;0.88;;;16.60;99.90;;;;;;4998217;28;20057;-74
2022/05/25 08:12:22;;;;;;;2.20;0.45;;;16.60;99.90;;;;;;5004801;28;20096;-75
2022/05/25 08:14:49;;;;;;;0.82;0.57;;;16.60;99.90;;;;;;5002275;28;20654;-75
2022/05/25 08:17:15;;;;;;;1.50;0.60;;;16.60;99.90;;;;;;5012331;28;20077;-74
2022/05/25 08:19:41;;;;;;;1.15;0.40;;;16.60;99.90;;;;;;5036961;28;20038;-76
2022/05/25 08:22:07;;;;;;;1.90;0.52;;;16.60;99.90;;;;;;5019604;28;20516;-75
2022/05/25 08:24:34;;;;;;;1.38;0.85;;;16.70;99.90;;;;;;5017978;28;20034;-75
2022/05/25 08:27:00;;;;;;;0.60;0.50;;;16.70;99.90;;;;;;5049274;28;20034;-74
2022/05/25 08:29:26;;;;;;;3.30;0.65;;;16.70;99.90;;;;;;5012861;28;20041;-74
2022/05/25 08:31:55;;;;;;;1.85;0.50;;;16.60;99.90;;;;;;5019372;28;20149;-74
2022/05/25 08:34:27;;;;;;;4.20;0.60;;;16.60;99.90;;;;;;5019025;28;20030;-76
2022/05/25 08:36:54;;;;;;;4.90;0.70;;;16.60;99.90;;;;;;5026469;28;20103;-73
2022/05/25 08:39:21;;;;;;;2.22;0.50;;;16.80;99.90;;;;;;5000382;28;20096;-74
2022/05/25 08:41:51;;;;;;;0.63;0.50;;;16.70;99.90;;;;;;5012271;28;20048;-75
2022/05/25 08:44:19;;;;;;;1.30;0.45;;;16.80;99.90;;;;;;5011520;28;20104;-74
2022/05/25 08:46:46;;;;;;;1.65;0.57;;;16.80;99.90;;;;;;5026028;28;20046;-74
2022/05/25 08:49:17;;;;;;;1.48;0.50;;;16.80;99.90;;;;;;5013081;28;20045;-74
2022/05/25 08:51:49;;;;;;;1.45;0.43;;;16.90;99.90;;;;;;5024070;28;20054;-72
2022/05/25 08:54:18;;;;;;;3.80;0.60;;;16.80;99.90;;;;;;5014760;28;20103;-73
2022/05/25 08:56:49;;;;;;;3.67;0.57;;;16.70;99.90;;;;;;5026569;28;20076;-74
2022/05/25 08:59:26;;;;;;;1.17;0.65;;;16.70;99.90;;;;;;5010113;28;20068;-73
2022/05/25 09:02:28;;;;;;;1.25;0.70;;;16.70;99.90;;;;;;5041278;28;20046;-73
2022/05/25 09:05:09;;;;;;;2.00;0.60;;;16.60;99.90;;;;;;5015321;28;20065;-73
2022/05/25 09:08:14;;;;;;;3.08;0.40;;;16.60;99.90;;;;;;5012749;28;20045;-74
2022/05/25 09:10:51;;;;;;;2.95;0.50;;;16.60;99.90;;;;;;5015016;28;20037;-74
2022/05/25 09:13:24;;;;;;;1.70;0.40;;;16.50;99.90;;;;;;5013148;28;20373;-73
2022/05/25 09:19:03;;;;;;;0.93;0.52;;;16.50;99.90;;;;;;5002840;28;20052;-74
2022/05/25 09:21:58;;;;;;;0.40;0.38;;;16.50;99.90;;;;;;5024224;28;20602;-75
2022/05/25 09:24:26;;;;;;;1.48;0.40;;;16.70;99.90;;;;;;5008711;28;20029;-73
2022/05/25 09:26:52;;;;;;;3.05;0.40;;;16.70;99.90;;;;;;5014350;28;20159;-73
2022/05/25 09:29:20;;;;;;;0.75;0.30;;;16.80;99.90;;;;;;5021146;28;20171;-72
2022/05/25 09:32:09;;;;;;;1.48;0.40;;;16.80;99.90;;;;;;5030343;28;20247;-73
2022/05/25 09:34:47;;;;;;;3.72;0.40;;;17.00;99.90;;;;;;5009675;28;20064;-73
2022/05/25 09:37:37;;;;;;;0.55;0.32;;;17.00;99.90;;;;;;5022343;28;20361;-72
2022/05/25 09:40:29;;;;;;;0.50;0.40;;;17.00;99.90;;;;;;5010427;28;20085;-72
2022/05/25 09:42:57;;;;;;;3.75;0.50;;;17.00;99.90;;;;;;5009241;28;20054;-72
2022/05/25 09:45:42;;;;;;;1.00;0.60;;;16.90;99.90;;;;;;5010227;28;21784;-73
2022/05/25 09:48:22;;;;;;;2.50;0.40;;;17.10;99.90;;;;;;5011085;28;20033;-73
2022/05/25 09:50:52;;;;;;;0.90;0.40;;;17.10;99.90;;;;;;5012311;28;20037;-73
2022/05/25 09:53:22;;;;;;;2.78;1.23;;;17.20;99.90;;;;;;5010625;28;20042;-73
2022/05/25 09:55:58;;;;;;;3.03;1.70;;;17.40;99.90;;;;;;5010770;28;20042;-75
2022/05/25 09:58:37;;;;;;;1.20;0.60;;;17.40;99.90;;;;;;5010429;28;20087;-74
2022/05/25 10:01:07;;;;;;;0.65;0.40;;;17.50;99.90;;;;;;5037132;28;20064;-74
2022/05/25 10:03:44;;;;;;;1.92;0.95;;;17.50;99.90;;;;;;5006357;28;20041;-72
2022/05/25 10:06:23;;;;;;;1.27;0.50;;;17.50;99.90;;;;;;5000723;28;20040;-73
2022/05/25 10:09:05;;;;;;;2.45;0.52;;;17.70;99.90;;;;;;5039945;28;20072;-75
2022/05/25 10:11:43;;;;;;;5.63;0.60;;;17.60;99.90;;;;;;5011848;28;20034;-73
2022/05/25 10:14:31;;;;;;;1.55;0.68;;;17.70;99.90;;;;;;5018428;28;20037;-74
2022/05/25 10:17:28;;;;;;;0.95;0.60;;;17.60;99.90;;;;;;5020064;28;20037;-76
2022/05/25 10:19:57;;;;;;;1.70;0.93;;;17.70;99.90;;;;;;5021476;28;20065;-73
2022/05/25 10:22:35;;;;;;;2.88;0.70;;;17.60;99.90;;;;;;5033887;28;20034;-73
2022/05/25 10:25:28;;;;;;;3.92;0.60;;;17.70;99.90;;;;;;5020088;28;20072;-73
2022/05/25 10:27:57;;;;;;;1.63;0.73;;;17.80;99.90;;;;;;5031970;28;20574;-73
2022/05/25 10:39:23;;;;;;;1.05;0.60;;;17.80;99.90;;;;;;5012438;28;20052;-73
2022/05/25 10:42:22;;;;;;;1.90;0.50;;;17.80;99.90;;;;;;5039929;28;20512;-74
2022/05/25 10:45:10;;;;;;;1.02;0.50;;;17.70;99.90;;;;;;5011408;28;20136;-73
2022/05/25 10:47:52;;;;;;;4.85;1.65;;;17.90;99.90;;;;;;5022579;28;20077;-73
2022/05/25 10:50:25;;;;;;;0.93;0.65;;;17.80;99.90;;;;;;5022511;28;20128;-76
2022/05/25 10:53:23;;;;;;;1.30;0.80;;;18.00;99.90;;;;;;5026787;28;20037;-74
2022/05/25 10:55:54;;;;;;;2.25;0.80;;;18.10;99.90;;;;;;5007076;28;20112;-73
2022/05/25 10:59:00;;;;;;;2.97;0.90;;;18.10;99.90;;;;;;5022007;28;20037;-74
2022/05/25 11:01:42;;;;;;;4.70;1.00;;;18.10;99.90;;;;;;4972276;28;20037;-74
2022/05/25 11:04:14;;;;;;;3.05;1.20;;;18.00;99.90;;;;;;5010322;28;20138;-73
2022/05/25 11:07:08;;;;;;;1.85;0.98;;;18.20;99.90;;;;;;5026900;28;20032;-74
2022/05/25 11:09:34;;;;;;;2.75;0.95;;;18.20;99.90;;;;;;5012225;28;20497;-74
2022/05/25 11:12:13;;;;;;;6.03;1.15;;;18.30;99.90;;;;;;5019289;28;20103;-74
2022/05/25 11:14:59;;;;;;;7.22;1.20;;;18.20;99.90;;;;;;5038032;28;20053;-73
2022/05/25 11:17:50;;;;;;;2.47;1.20;;;18.10;99.90;;;;;;5002727;28;20099;-74
2022/05/25 11:20:29;;;;;;;4.00;1.40;;;18.00;99.90;;;;;;5036894;28;20084;-76
2022/05/25 11:23:16;;;;;;;2.42;1.30;;;18.30;99.90;;;;;;4992381;28;20366;-74
2022/05/25 11:25:54;;;;;;;4.78;1.40;;;18.30;99.90;;;;;;5027028;28;20049;-75
2022/05/25 11:28:39;;;;;;;1.73;1.30;;;18.20;99.90;;;;;;5030595;28;20061;-75
2022/05/25 11:31:36;;;;;;;3.33;1.30;;;18.50;99.90;;;;;;5010716;28;20038;-75
2022/05/25 11:34:22;;;;;;;4.57;1.55;;;18.60;99.90;;;;;;5014378;28;20041;-73
2022/05/25 11:37:10;;;;;;;7.93;1.60;;;18.80;99.90;;;;;;5037495;28;20075;-73
2022/05/25 11:39:56;;;;;;;3.58;1.48;;;18.70;99.90;;;;;;5048839;28;20603;-74
2022/05/25 11:42:54;;;;;;;2.63;1.40;;;18.60;99.90;;;;;;5048621;28;20100;-73
2022/05/25 11:45:42;;;;;;;2.85;1.40;;;18.90;99.90;;;;;;5000263;28;20045;-74
2022/05/25 11:48:26;;;;;;;2.42;1.00;;;18.70;99.90;;;;;;5036714;28;20041;-73
2022/05/25 11:51:10;;;;;;;2.10;1.25;;;18.80;99.90;;;;;;5013267;28;20044;-74
2022/05/25 11:53:36;;;;;;;3.40;1.23;;;19.10;99.90;;;;;;5006957;28;20034;-74
2022/05/25 11:56:08;;;;;;;3.22;1.48;;;19.40;99.90;;;;;;4987894;28;20042;-75
2022/05/25 11:59:14;;;;;;;4.07;1.20;;;19.30;99.90;;;;;;5003305;28;21412;-76
2022/05/25 12:02:03;;;;;;;2.95;1.50;;;19.30;99.90;;;;;;5003975;28;20034;-76
2022/05/25 12:04:47;;;;;;;1.50;1.20;;;19.30;99.90;;;;;;4992668;28;20037;-76
2022/05/25 12:07:20;;;;;;;2.78;1.20;;;19.30;99.90;;;;;;5000061;28;20093;-75
2022/05/25 12:10:04;;;;;;;5.18;1.20;;;19.30;99.90;;;;;;5031755;28;20049;-76
2022/05/25 12:12:43;;;;;;;1.45;1.10;;;19.10;99.90;;;;;;4997506;28;20037;-76
2022/05/25 12:15:52;;;;;;;3.60;1.20;;;19.10;99.90;;;;;;5003060;28;20050;-76
2022/05/25 12:18:57;;;;;;;2.45;1.25;;;19.10;99.90;;;;;;5002440;28;20050;-75
2022/05/25 12:21:34;;;;;;;4.68;1.63;;;19.20;99.90;;;;;;4991270;28;22792;-76
2022/05/25 12:24:10;;;;;;;3.78;1.20;;;19.20;99.90;;;;;;5009034;28;20039;-74
2022/05/25 12:26:39;;;;;;;4.18;1.42;;;19.10;99.90;;;;;;5006915;28;20042;-75
2022/05/25 12:29:15;;;;;;;1.98;1.20;;;18.90;99.90;;;;;;5002846;28;20484;-75
2022/05/25 12:31:44;;;;;;;1.42;1.00;;;18.90;99.90;;;;;;5005553;28;20516;-75
2022/05/25 12:34:12;;;;;;;3.72;1.10;;;18.90;99.90;;;;;;5018238;28;20042;-73
2022/05/25 12:36:40;;;;;;;2.78;1.35;;;19.00;99.90;;;;;;5003570;28;20049;-75
2022/05/25 12:39:07;;;;;;;1.63;0.98;;;18.90;99.90;;;;;;5005995;28;20026;-75
2022/05/25 12:41:36;;;;;;;2.72;1.00;;;18.90;99.90;;;;;;5019636;28;20038;-74
2022/05/25 12:50:21;;;;;;;4.00;1.20;;;19.00;99.90;;;;;;5046891;28;20048;-75
2022/05/25 12:52:49;;;;;;;3.47;1.10;;;19.00;99.90;;;;;;5021302;28;20160;-74
2022/05/25 12:55:32;;;;;;;2.35;1.10;;;19.10;99.90;;;;;;5021099;28;20509;-76
2022/05/25 12:57:58;;;;;;;3.63;1.90;;;19.20;99.90;;;;;;5042724;28;20447;-75
2022/05/25 13:00:35;;;;;;;5.10;0.90;;;19.30;99.90;;;;;;5022118;28;20034;-75
2022/05/25 13:03:21;;;;;;;1.80;0.90;;;19.30;99.90;;;;;;5023440;28;20040;-75
2022/05/25 13:05:55;;;;;;;2.97;0.80;;;19.40;99.90;;;;;;5023429;28;20076;-74
2022/05/25 13:09:05;;;;;;;0.75;0.60;;;19.40;99.90;;;;;;5035652;28;20127;-75
2022/05/25 13:11:34;;;;;;;2.53;0.70;;;19.50;99.90;;;;;;5005807;28;20049;-76
2022/05/25 13:14:03;;;;;;;2.33;0.70;;;19.60;99.90;;;;;;5026937;28;20033;-76
2022/05/25 13:16:46;;;;;;;2.15;0.80;;;19.70;99.90;;;;;;5025328;28;20140;-75
2022/05/25 13:19:32;;;;;;;0.70;0.50;;;19.70;99.90;;;;;;5024405;28;20116;-76
2022/05/25 13:22:06;;;;;;;2.60;0.60;;;19.60;99.90;;;;;;5027468;28;20049;-78
2022/05/25 13:24:50;;;;;;;1.27;0.60;;;19.80;99.90;;;;;;5021027;28;20542;-76
2022/05/25 13:27:16;;;;;;;4.88;1.00;;;20.00;99.90;;;;;;5020361;28;20045;-76
2022/05/25 13:29:42;;;;;;;0.85;0.60;;;20.00;99.90;;;;;;5023230;28;20053;-75
2022/05/25 13:32:35;;;;;;;1.10;0.63;;;20.00;99.90;;;;;;5022849;28;20768;-76
2022/05/25 13:35:19;;;;;;;3.08;0.70;;;20.20;99.90;;;;;;5037076;28;20041;-76
2022/05/25 13:38:16;;;;;;;1.42;0.70;;;20.30;99.90;;;;;;5039821;28;20474;-74
2022/05/25 13:40:46;;;;;;;3.00;0.82;;;20.30;99.90;;;;;;5019683;28;20064;-75
2022/05/25 13:43:19;;;;;;;1.80;0.75;;;20.30;99.90;;;;;;5037225;28;20037;-76
2022/05/25 13:45:47;;;;;;;1.75;0.60;;;20.30;99.90;;;;;;5030755;28;20125;-76
2022/05/25 13:48:17;;;;;;;0.95;0.60;;;20.20;99.90;;;;;;5012035;28;20718;-75
2022/05/25 13:50:47;;;;;;;3.03;0.60;;;20.20;99.90;;;;;;5029294;28;20152;-78